Virtual LH

Virtual LH. There's no better way to fly
Since 2013.



AIRPORT MAP

METAR AND TAF INFORMATION

METAR FOR FNCA
ADDS - METARS form results

(0104 UTC 23 July 2019)
Data provider http://aviationweather.gov/metar/data/
 
Forecast for: FNCA (CABINDA , AO)
Text: TAF FNCA 222300Z 2300/2312 17005KT 7000 FEW018 SCT020
Forecast period: 0000 to 1200 UTC 23 July 2019
Forecast type: FROM: standard forecast or significant change
Winds: from the S (170 degrees) at 6 MPH (5 knots; 2.6 m/s)
Visibility: 4 miles (7 km)
Ceiling: at least 12,000 feet AGL
Clouds: few clouds at 1800 feet AGL
scattered clouds at 2000 feet AGL
Weather: no significant weather forecast for this period
Text: TEMPO 2303/2309 9000
Forecast period: 0300 to 0900 UTC 23 July 2019
Forecast type: TEMPORARY: The following changes expected for less than half the time period
Visibility: 6 miles (9 km)
Ceiling: unknown
Clouds: missing
Weather: no significant weather forecast for this period

RUNWAY INFORMATION

Runway 01 Runway length 8202 ft Runway width 98 ft
Runway elevation 63 ft Runway displaced threshold 0 ft Runway heading 360
Runway 19 Runway length 8202 ft Runway width 98 ft
Runway elevation 85 ft Runway displaced threshold 0 ft Runway heading 180

AIRPORT FREQUENCIES

Type AFIS Name AFIS Frequency 118.3 MHZ

AIRPORT NEAR NAVIGATION AIDS

Type NDB Name Cabinda Frequency 280 KHZ
Type VOR-DME Name Cabinda Frequency 114300 KHZ